sensor_id;sensor_type;location;lat;lon;timestamp;P1;durP1;ratioP1;P2;durP2;ratioP2
39728;SDS011;25402;42.004;23.088;2023-06-26T00:00:29;16.88;;;9.73;;
39728;SDS011;25402;42.004;23.088;2023-06-26T00:02:57;17.77;;;10.35;;
39728;SDS011;25402;42.004;23.088;2023-06-26T00:05:25;17.20;;;9.45;;
39728;SDS011;25402;42.004;23.088;2023-06-26T00:07:53;19.00;;;9.68;;
39728;SDS011;25402;42.004;23.088;2023-06-26T00:10:23;17.00;;;9.30;;
39728;SDS011;25402;42.004;23.088;2023-06-26T00:12:50;22.65;;;10.40;;
39728;SDS011;25402;42.004;23.088;2023-06-26T00:15:16;19.63;;;9.70;;
39728;SDS011;25402;42.004;23.088;2023-06-26T00:17:43;21.98;;;9.60;;
39728;SDS011;25402;42.004;23.088;2023-06-26T00:20:10;21.13;;;10.45;;
39728;SDS011;25402;42.004;23.088;2023-06-26T00:22:39;21.25;;;9.63;;
39728;SDS011;25402;42.004;23.088;2023-06-26T00:25:06;17.38;;;10.05;;
39728;SDS011;25402;42.004;23.088;2023-06-26T00:27:35;20.08;;;10.65;;
39728;SDS011;25402;42.004;23.088;2023-06-26T00:30:02;25.38;;;10.02;;
39728;SDS011;25402;42.004;23.088;2023-06-26T00:32:30;19.50;;;10.88;;
39728;SDS011;25402;42.004;23.088;2023-06-26T00:34:57;19.42;;;10.50;;
39728;SDS011;25402;42.004;23.088;2023-06-26T00:37:24;21.15;;;9.93;;
39728;SDS011;25402;42.004;23.088;2023-06-26T00:39:51;17.50;;;9.52;;
39728;SDS011;25402;42.004;23.088;2023-06-26T00:42:18;19.52;;;10.55;;
39728;SDS011;25402;42.004;23.088;2023-06-26T00:44:46;28.38;;;10.02;;
39728;SDS011;25402;42.004;23.088;2023-06-26T00:47:14;24.50;;;10.25;;
39728;SDS011;25402;42.004;23.088;2023-06-26T00:49:42;20.38;;;10.25;;
39728;SDS011;25402;42.004;23.088;2023-06-26T00:52:09;29.63;;;10.68;;
39728;SDS011;25402;42.004;23.088;2023-06-26T00:54:36;27.23;;;10.38;;
39728;SDS011;25402;42.004;23.088;2023-06-26T00:57:03;23.60;;;10.40;;
39728;SDS011;25402;42.004;23.088;2023-06-26T00:59:30;30.90;;;11.63;;
39728;SDS011;25402;42.004;23.088;2023-06-26T01:01:59;30.30;;;11.20;;
39728;SDS011;25402;42.004;23.088;2023-06-26T01:04:26;28.50;;;10.68;;
39728;SDS011;25402;42.004;23.088;2023-06-26T01:06:57;24.10;;;10.68;;
39728;SDS011;25402;42.004;23.088;2023-06-26T01:09:26;17.02;;;10.13;;
39728;SDS011;25402;42.004;23.088;2023-06-26T01:11:53;20.25;;;10.88;;
39728;SDS011;25402;42.004;23.088;2023-06-26T01:14:21;25.05;;;11.02;;
39728;SDS011;25402;42.004;23.088;2023-06-26T01:16:48;25.90;;;11.63;;
39728;SDS011;25402;42.004;23.088;2023-06-26T01:19:20;22.00;;;11.38;;
39728;SDS011;25402;42.004;23.088;2023-06-26T01:21:51;25.73;;;10.98;;
39728;SDS011;25402;42.004;23.088;2023-06-26T01:24:24;23.75;;;11.80;;
39728;SDS011;25402;42.004;23.088;2023-06-26T01:26:59;21.00;;;10.73;;
39728;SDS011;25402;42.004;23.088;2023-06-26T01:29:28;18.60;;;11.00;;
39728;SDS011;25402;42.004;23.088;2023-06-26T01:31:58;18.85;;;11.02;;
39728;SDS011;25402;42.004;23.088;2023-06-26T01:34:26;22.92;;;10.60;;
39728;SDS011;25402;42.004;23.088;2023-06-26T01:36:53;19.88;;;10.68;;
39728;SDS011;25402;42.004;23.088;2023-06-26T01:39:20;24.40;;;10.32;;
39728;SDS011;25402;42.004;23.088;2023-06-26T01:41:48;20.40;;;10.65;;
39728;SDS011;25402;42.004;23.088;2023-06-26T01:44:21;18.92;;;10.35;;
39728;SDS011;25402;42.004;23.088;2023-06-26T01:46:54;21.23;;;10.85;;
39728;SDS011;25402;42.004;23.088;2023-06-26T01:49:29;21.45;;;10.73;;
39728;SDS011;25402;42.004;23.088;2023-06-26T01:52:12;22.10;;;10.98;;
39728;SDS011;25402;42.004;23.088;2023-06-26T01:54:47;19.13;;;10.80;;
39728;SDS011;25402;42.004;23.088;2023-06-26T01:59:49;18.98;;;11.40;;
39728;SDS011;25402;42.004;23.088;2023-06-26T02:02:18;20.38;;;11.65;;
39728;SDS011;25402;42.004;23.088;2023-06-26T02:04:45;24.35;;;11.57;;
39728;SDS011;25402;42.004;23.088;2023-06-26T02:07:14;20.95;;;11.50;;
39728;SDS011;25402;42.004;23.088;2023-06-26T02:09:41;23.80;;;11.30;;
39728;SDS011;25402;42.004;23.088;2023-06-26T02:12:08;21.83;;;11.05;;
39728;SDS011;25402;42.004;23.088;2023-06-26T02:14:36;24.17;;;11.68;;
39728;SDS011;25402;42.004;23.088;2023-06-26T02:17:04;22.75;;;11.70;;
39728;SDS011;25402;42.004;23.088;2023-06-26T02:19:34;26.33;;;12.55;;
39728;SDS011;25402;42.004;23.088;2023-06-26T02:22:01;25.33;;;12.63;;
39728;SDS011;25402;42.004;23.088;2023-06-26T02:24:28;24.08;;;11.63;;
39728;SDS011;25402;42.004;23.088;2023-06-26T02:26:55;20.58;;;11.93;;
39728;SDS011;25402;42.004;23.088;2023-06-26T02:29:22;24.60;;;12.60;;
39728;SDS011;25402;42.004;23.088;2023-06-26T02:31:49;19.63;;;11.82;;
39728;SDS011;25402;42.004;23.088;2023-06-26T02:34:18;25.10;;;12.20;;
39728;SDS011;25402;42.004;23.088;2023-06-26T02:36:44;26.60;;;13.00;;
39728;SDS011;25402;42.004;23.088;2023-06-26T02:39:11;26.98;;;13.02;;
39728;SDS011;25402;42.004;23.088;2023-06-26T02:41:39;26.13;;;13.43;;
39728;SDS011;25402;42.004;23.088;2023-06-26T02:44:06;21.50;;;12.80;;
39728;SDS011;25402;42.004;23.088;2023-06-26T02:46:33;21.98;;;12.75;;
39728;SDS011;25402;42.004;23.088;2023-06-26T02:49:00;28.35;;;13.40;;
39728;SDS011;25402;42.004;23.088;2023-06-26T02:51:28;26.65;;;12.85;;
39728;SDS011;25402;42.004;23.088;2023-06-26T02:53:55;32.00;;;14.57;;
39728;SDS011;25402;42.004;23.088;2023-06-26T02:56:22;31.20;;;15.00;;
39728;SDS011;25402;42.004;23.088;2023-06-26T02:58:49;27.58;;;15.07;;
39728;SDS011;25402;42.004;23.088;2023-06-26T03:01:16;37.22;;;13.90;;
39728;SDS011;25402;42.004;23.088;2023-06-26T03:03:44;25.10;;;12.43;;
39728;SDS011;25402;42.004;23.088;2023-06-26T03:06:12;30.30;;;14.02;;
39728;SDS011;25402;42.004;23.088;2023-06-26T03:08:41;29.20;;;13.40;;
39728;SDS011;25402;42.004;23.088;2023-06-26T03:11:09;22.02;;;12.73;;
39728;SDS011;25402;42.004;23.088;2023-06-26T03:13:36;24.27;;;13.07;;
39728;SDS011;25402;42.004;23.088;2023-06-26T03:16:04;30.20;;;14.18;;
39728;SDS011;25402;42.004;23.088;2023-06-26T03:18:31;29.13;;;13.88;;
39728;SDS011;25402;42.004;23.088;2023-06-26T03:20:58;36.22;;;14.35;;
39728;SDS011;25402;42.004;23.088;2023-06-26T03:23:28;32.60;;;13.70;;
39728;SDS011;25402;42.004;23.088;2023-06-26T03:25:56;24.50;;;13.98;;
39728;SDS011;25402;42.004;23.088;2023-06-26T03:28:23;28.05;;;12.60;;
39728;SDS011;25402;42.004;23.088;2023-06-26T03:30:50;31.90;;;14.65;;
39728;SDS011;25402;42.004;23.088;2023-06-26T03:33:17;34.22;;;14.98;;
39728;SDS011;25402;42.004;23.088;2023-06-26T03:35:44;35.90;;;13.13;;
39728;SDS011;25402;42.004;23.088;2023-06-26T03:38:11;31.02;;;13.00;;
39728;SDS011;25402;42.004;23.088;2023-06-26T03:40:38;31.02;;;12.88;;
39728;SDS011;25402;42.004;23.088;2023-06-26T03:43:10;34.05;;;13.32;;
39728;SDS011;25402;42.004;23.088;2023-06-26T03:45:37;24.38;;;12.82;;
39728;SDS011;25402;42.004;23.088;2023-06-26T03:48:04;30.27;;;14.32;;
39728;SDS011;25402;42.004;23.088;2023-06-26T03:50:30;24.33;;;12.50;;
39728;SDS011;25402;42.004;23.088;2023-06-26T03:53:02;33.22;;;14.05;;
39728;SDS011;25402;42.004;23.088;2023-06-26T03:55:29;31.63;;;13.57;;
39728;SDS011;25402;42.004;23.088;2023-06-26T03:57:56;21.88;;;13.18;;
39728;SDS011;25402;42.004;23.088;2023-06-26T04:00:25;24.85;;;13.18;;
39728;SDS011;25402;42.004;23.088;2023-06-26T04:02:52;31.27;;;13.15;;
39728;SDS011;25402;42.004;23.088;2023-06-26T04:05:19;25.33;;;12.88;;
39728;SDS011;25402;42.004;23.088;2023-06-26T04:07:50;24.60;;;11.55;;
39728;SDS011;25402;42.004;23.088;2023-06-26T04:10:17;24.98;;;11.43;;
39728;SDS011;25402;42.004;23.088;2023-06-26T04:12:45;32.45;;;19.80;;
39728;SDS011;25402;42.004;23.088;2023-06-26T04:15:13;28.45;;;15.27;;
39728;SDS011;25402;42.004;23.088;2023-06-26T04:17:41;23.75;;;14.52;;
39728;SDS011;25402;42.004;23.088;2023-06-26T04:20:08;32.15;;;14.43;;
39728;SDS011;25402;42.004;23.088;2023-06-26T04:22:36;27.20;;;13.70;;
39728;SDS011;25402;42.004;23.088;2023-06-26T04:25:03;35.00;;;15.13;;
39728;SDS011;25402;42.004;23.088;2023-06-26T04:27:30;36.92;;;13.85;;
39728;SDS011;25402;42.004;23.088;2023-06-26T04:29:57;32.30;;;14.45;;
39728;SDS011;25402;42.004;23.088;2023-06-26T04:32:24;41.08;;;13.85;;
39728;SDS011;25402;42.004;23.088;2023-06-26T04:34:53;24.60;;;13.10;;
39728;SDS011;25402;42.004;23.088;2023-06-26T04:37:20;30.50;;;13.60;;
39728;SDS011;25402;42.004;23.088;2023-06-26T04:39:47;44.78;;;15.50;;
39728;SDS011;25402;42.004;23.088;2023-06-26T04:42:13;28.10;;;14.00;;
39728;SDS011;25402;42.004;23.088;2023-06-26T04:44:40;29.92;;;18.75;;
39728;SDS011;25402;42.004;23.088;2023-06-26T04:47:08;30.10;;;16.65;;
39728;SDS011;25402;42.004;23.088;2023-06-26T04:49:36;34.80;;;17.45;;
39728;SDS011;25402;42.004;23.088;2023-06-26T04:52:12;32.70;;;15.20;;
39728;SDS011;25402;42.004;23.088;2023-06-26T04:54:40;31.08;;;16.75;;
39728;SDS011;25402;42.004;23.088;2023-06-26T04:57:09;20.67;;;13.15;;
39728;SDS011;25402;42.004;23.088;2023-06-26T04:59:37;25.83;;;12.43;;
39728;SDS011;25402;42.004;23.088;2023-06-26T05:02:04;24.45;;;13.50;;
39728;SDS011;25402;42.004;23.088;2023-06-26T05:04:32;24.42;;;12.82;;
39728;SDS011;25402;42.004;23.088;2023-06-26T05:06:59;30.65;;;14.18;;
39728;SDS011;25402;42.004;23.088;2023-06-26T05:09:27;36.38;;;14.68;;
39728;SDS011;25402;42.004;23.088;2023-06-26T05:11:57;30.00;;;13.88;;
39728;SDS011;25402;42.004;23.088;2023-06-26T05:14:23;27.67;;;13.25;;
39728;SDS011;25402;42.004;23.088;2023-06-26T05:16:50;26.80;;;14.48;;
39728;SDS011;25402;42.004;23.088;2023-06-26T05:19:20;28.25;;;14.00;;
39728;SDS011;25402;42.004;23.088;2023-06-26T05:21:47;31.83;;;14.25;;
39728;SDS011;25402;42.004;23.088;2023-06-26T05:24:16;18.83;;;11.30;;
39728;SDS011;25402;42.004;23.088;2023-06-26T05:26:45;26.70;;;12.23;;
39728;SDS011;25402;42.004;23.088;2023-06-26T05:29:12;18.25;;;11.27;;
39728;SDS011;25402;42.004;23.088;2023-06-26T05:31:40;20.05;;;11.02;;
39728;SDS011;25402;42.004;23.088;2023-06-26T05:34:11;19.15;;;11.13;;
39728;SDS011;25402;42.004;23.088;2023-06-26T05:36:40;16.67;;;10.80;;
39728;SDS011;25402;42.004;23.088;2023-06-26T05:39:08;20.77;;;8.80;;
39728;SDS011;25402;42.004;23.088;2023-06-26T05:41:36;17.17;;;8.68;;
39728;SDS011;25402;42.004;23.088;2023-06-26T05:44:05;14.65;;;7.97;;
39728;SDS011;25402;42.004;23.088;2023-06-26T05:46:32;17.88;;;8.35;;
39728;SDS011;25402;42.004;23.088;2023-06-26T05:48:59;18.17;;;9.27;;
39728;SDS011;25402;42.004;23.088;2023-06-26T05:51:26;19.83;;;8.57;;
39728;SDS011;25402;42.004;23.088;2023-06-26T05:53:54;11.82;;;6.78;;
39728;SDS011;25402;42.004;23.088;2023-06-26T05:56:21;10.57;;;8.20;;
39728;SDS011;25402;42.004;23.088;2023-06-26T05:58:48;12.40;;;8.38;;
39728;SDS011;25402;42.004;23.088;2023-06-26T06:01:18;17.80;;;8.43;;
39728;SDS011;25402;42.004;23.088;2023-06-26T06:03:46;13.07;;;7.95;;
39728;SDS011;25402;42.004;23.088;2023-06-26T06:06:13;14.13;;;7.80;;
39728;SDS011;25402;42.004;23.088;2023-06-26T06:08:41;13.43;;;8.18;;
39728;SDS011;25402;42.004;23.088;2023-06-26T06:11:08;16.67;;;7.88;;
39728;SDS011;25402;42.004;23.088;2023-06-26T06:13:35;13.38;;;7.70;;
39728;SDS011;25402;42.004;23.088;2023-06-26T06:16:02;13.52;;;7.45;;
39728;SDS011;25402;42.004;23.088;2023-06-26T06:18:31;11.13;;;6.88;;
39728;SDS011;25402;42.004;23.088;2023-06-26T06:20:58;17.00;;;7.38;;
39728;SDS011;25402;42.004;23.088;2023-06-26T06:23:25;19.85;;;6.90;;
39728;SDS011;25402;42.004;23.088;2023-06-26T06:25:52;14.93;;;7.40;;
39728;SDS011;25402;42.004;23.088;2023-06-26T06:28:19;10.35;;;7.63;;
39728;SDS011;25402;42.004;23.088;2023-06-26T06:30:45;15.50;;;8.00;;
39728;SDS011;25402;42.004;23.088;2023-06-26T06:33:13;12.43;;;7.47;;
39728;SDS011;25402;42.004;23.088;2023-06-26T06:35:42;15.23;;;7.13;;
39728;SDS011;25402;42.004;23.088;2023-06-26T06:38:09;11.80;;;7.70;;
39728;SDS011;25402;42.004;23.088;2023-06-26T06:40:36;13.13;;;8.10;;
39728;SDS011;25402;42.004;23.088;2023-06-26T06:43:03;10.73;;;8.18;;
39728;SDS011;25402;42.004;23.088;2023-06-26T06:45:30;17.52;;;8.50;;
39728;SDS011;25402;42.004;23.088;2023-06-26T06:47:57;12.55;;;7.68;;
39728;SDS011;25402;42.004;23.088;2023-06-26T06:50:25;15.75;;;8.73;;
39728;SDS011;25402;42.004;23.088;2023-06-26T06:52:56;16.73;;;8.93;;
39728;SDS011;25402;42.004;23.088;2023-06-26T06:55:23;16.40;;;8.80;;
39728;SDS011;25402;42.004;23.088;2023-06-26T06:57:51;15.20;;;8.18;;
39728;SDS011;25402;42.004;23.088;2023-06-26T07:00:18;14.65;;;8.32;;
39728;SDS011;25402;42.004;23.088;2023-06-26T07:02:45;16.45;;;10.05;;
39728;SDS011;25402;42.004;23.088;2023-06-26T07:05:12;17.17;;;12.25;;
39728;SDS011;25402;42.004;23.088;2023-06-26T07:07:39;14.40;;;9.35;;
39728;SDS011;25402;42.004;23.088;2023-06-26T07:10:09;17.77;;;9.55;;
39728;SDS011;25402;42.004;23.088;2023-06-26T07:12:39;15.30;;;8.77;;
39728;SDS011;25402;42.004;23.088;2023-06-26T07:15:09;18.58;;;8.48;;
39728;SDS011;25402;42.004;23.088;2023-06-26T07:17:38;21.02;;;8.57;;
39728;SDS011;25402;42.004;23.088;2023-06-26T07:20:06;43.08;;;9.32;;
39728;SDS011;25402;42.004;23.088;2023-06-26T07:22:33;14.38;;;8.40;;
39728;SDS011;25402;42.004;23.088;2023-06-26T07:25:00;22.45;;;8.35;;
39728;SDS011;25402;42.004;23.088;2023-06-26T07:27:30;17.95;;;9.27;;
39728;SDS011;25402;42.004;23.088;2023-06-26T07:29:58;13.07;;;8.55;;
39728;SDS011;25402;42.004;23.088;2023-06-26T07:32:25;13.98;;;7.93;;
39728;SDS011;25402;42.004;23.088;2023-06-26T07:34:52;14.20;;;8.70;;
39728;SDS011;25402;42.004;23.088;2023-06-26T07:37:19;11.88;;;8.13;;
39728;SDS011;25402;42.004;23.088;2023-06-26T07:39:48;11.45;;;8.60;;
39728;SDS011;25402;42.004;23.088;2023-06-26T07:42:15;13.88;;;7.97;;
39728;SDS011;25402;42.004;23.088;2023-06-26T07:44:44;14.15;;;7.95;;
39728;SDS011;25402;42.004;23.088;2023-06-26T07:47:12;12.77;;;7.60;;
39728;SDS011;25402;42.004;23.088;2023-06-26T07:49:39;19.67;;;7.72;;
39728;SDS011;25402;42.004;23.088;2023-06-26T07:52:06;11.35;;;7.38;;
39728;SDS011;25402;42.004;23.088;2023-06-26T07:54:35;16.13;;;7.57;;
39728;SDS011;25402;42.004;23.088;2023-06-26T07:57:03;16.02;;;7.43;;
39728;SDS011;25402;42.004;23.088;2023-06-26T07:59:32;17.42;;;7.00;;
39728;SDS011;25402;42.004;23.088;2023-06-26T08:02:01;14.02;;;6.90;;
39728;SDS011;25402;42.004;23.088;2023-06-26T08:04:29;10.18;;;6.45;;
39728;SDS011;25402;42.004;23.088;2023-06-26T08:06:57;9.68;;;6.20;;
39728;SDS011;25402;42.004;23.088;2023-06-26T08:09:26;11.77;;;6.93;;
39728;SDS011;25402;42.004;23.088;2023-06-26T08:11:54;16.85;;;6.55;;
39728;SDS011;25402;42.004;23.088;2023-06-26T08:14:22;12.07;;;6.50;;
39728;SDS011;25402;42.004;23.088;2023-06-26T08:16:49;11.68;;;6.40;;
39728;SDS011;25402;42.004;23.088;2023-06-26T08:19:18;11.32;;;6.68;;
39728;SDS011;25402;42.004;23.088;2023-06-26T08:21:45;11.75;;;6.25;;
39728;SDS011;25402;42.004;23.088;2023-06-26T08:24:13;10.80;;;6.47;;
39728;SDS011;25402;42.004;23.088;2023-06-26T08:26:41;10.98;;;6.15;;
39728;SDS011;25402;42.004;23.088;2023-06-26T08:29:08;10.32;;;6.68;;
39728;SDS011;25402;42.004;23.088;2023-06-26T08:31:40;10.48;;;5.90;;
39728;SDS011;25402;42.004;23.088;2023-06-26T08:34:08;11.45;;;6.30;;
39728;SDS011;25402;42.004;23.088;2023-06-26T08:36:36;10.80;;;7.07;;
39728;SDS011;25402;42.004;23.088;2023-06-26T08:39:06;16.45;;;6.80;;
39728;SDS011;25402;42.004;23.088;2023-06-26T08:41:34;13.98;;;7.97;;
39728;SDS011;25402;42.004;23.088;2023-06-26T08:44:01;15.05;;;7.03;;
39728;SDS011;25402;42.004;23.088;2023-06-26T08:46:29;16.33;;;7.53;;
39728;SDS011;25402;42.004;23.088;2023-06-26T08:48:59;9.63;;;7.35;;
39728;SDS011;25402;42.004;23.088;2023-06-26T08:51:29;9.68;;;7.47;;
39728;SDS011;25402;42.004;23.088;2023-06-26T08:54:01;14.32;;;8.30;;
39728;SDS011;25402;42.004;23.088;2023-06-26T08:56:31;11.82;;;7.75;;
39728;SDS011;25402;42.004;23.088;2023-06-26T08:59:02;11.70;;;6.82;;
39728;SDS011;25402;42.004;23.088;2023-06-26T09:01:31;11.18;;;7.88;;
39728;SDS011;25402;42.004;23.088;2023-06-26T09:03:58;9.60;;;7.10;;
39728;SDS011;25402;42.004;23.088;2023-06-26T09:06:25;10.32;;;7.50;;
39728;SDS011;25402;42.004;23.088;2023-06-26T09:08:52;18.75;;;8.30;;
39728;SDS011;25402;42.004;23.088;2023-06-26T09:11:21;15.40;;;7.30;;
39728;SDS011;25402;42.004;23.088;2023-06-26T09:13:48;16.20;;;8.35;;
39728;SDS011;25402;42.004;23.088;2023-06-26T09:16:17;11.23;;;7.80;;
39728;SDS011;25402;42.004;23.088;2023-06-26T09:18:51;11.70;;;7.65;;
39728;SDS011;25402;42.004;23.088;2023-06-26T09:21:19;12.13;;;7.78;;
39728;SDS011;25402;42.004;23.088;2023-06-26T09:23:46;11.80;;;7.15;;
39728;SDS011;25402;42.004;23.088;2023-06-26T09:26:14;10.32;;;6.22;;
39728;SDS011;25402;42.004;23.088;2023-06-26T09:28:43;13.57;;;6.85;;
39728;SDS011;25402;42.004;23.088;2023-06-26T09:31:10;13.02;;;6.93;;
39728;SDS011;25402;42.004;23.088;2023-06-26T09:33:40;11.00;;;6.65;;
39728;SDS011;25402;42.004;23.088;2023-06-26T09:36:09;11.10;;;6.80;;
39728;SDS011;25402;42.004;23.088;2023-06-26T09:38:46;8.65;;;7.15;;
39728;SDS011;25402;42.004;23.088;2023-06-26T09:41:15;17.75;;;6.85;;
39728;SDS011;25402;42.004;23.088;2023-06-26T09:43:47;11.95;;;6.80;;
39728;SDS011;25402;42.004;23.088;2023-06-26T09:46:15;12.88;;;6.70;;
39728;SDS011;25402;42.004;23.088;2023-06-26T09:48:43;10.50;;;6.30;;
39728;SDS011;25402;42.004;23.088;2023-06-26T09:51:12;9.30;;;6.78;;
39728;SDS011;25402;42.004;23.088;2023-06-26T09:53:41;9.93;;;5.80;;
39728;SDS011;25402;42.004;23.088;2023-06-26T09:56:10;8.93;;;6.25;;
39728;SDS011;25402;42.004;23.088;2023-06-26T09:58:43;16.58;;;6.78;;
39728;SDS011;25402;42.004;23.088;2023-06-26T10:01:13;13.00;;;6.75;;
39728;SDS011;25402;42.004;23.088;2023-06-26T10:03:42;8.95;;;5.80;;
39728;SDS011;25402;42.004;23.088;2023-06-26T10:06:09;9.23;;;5.13;;
39728;SDS011;25402;42.004;23.088;2023-06-26T10:08:38;7.65;;;5.40;;
39728;SDS011;25402;42.004;23.088;2023-06-26T10:11:06;8.55;;;5.65;;
39728;SDS011;25402;42.004;23.088;2023-06-26T10:13:39;10.23;;;5.80;;
39728;SDS011;25402;42.004;23.088;2023-06-26T10:18:39;12.68;;;6.40;;
39728;SDS011;25402;42.004;23.088;2023-06-26T10:21:08;11.63;;;6.22;;
39728;SDS011;25402;42.004;23.088;2023-06-26T10:23:37;11.05;;;6.32;;
39728;SDS011;25402;42.004;23.088;2023-06-26T10:26:07;9.30;;;6.50;;
39728;SDS011;25402;42.004;23.088;2023-06-26T10:28:38;8.75;;;6.50;;
39728;SDS011;25402;42.004;23.088;2023-06-26T10:31:08;9.77;;;5.50;;
39728;SDS011;25402;42.004;23.088;2023-06-26T10:33:38;13.07;;;5.55;;
39728;SDS011;25402;42.004;23.088;2023-06-26T10:36:16;9.25;;;5.10;;
39728;SDS011;25402;42.004;23.088;2023-06-26T10:38:51;9.27;;;5.18;;
39728;SDS011;25402;42.004;23.088;2023-06-26T10:41:22;5.95;;;4.93;;
39728;SDS011;25402;42.004;23.088;2023-06-26T10:44:05;11.43;;;5.30;;
39728;SDS011;25402;42.004;23.088;2023-06-26T10:46:33;8.73;;;4.88;;
39728;SDS011;25402;42.004;23.088;2023-06-26T10:49:16;7.70;;;4.50;;
39728;SDS011;25402;42.004;23.088;2023-06-26T10:51:47;10.95;;;3.65;;
39728;SDS011;25402;42.004;23.088;2023-06-26T10:54:15;10.98;;;3.58;;
39728;SDS011;25402;42.004;23.088;2023-06-26T10:56:43;8.43;;;3.85;;
39728;SDS011;25402;42.004;23.088;2023-06-26T10:59:13;13.30;;;3.97;;
39728;SDS011;25402;42.004;23.088;2023-06-26T11:01:41;9.40;;;4.30;;
39728;SDS011;25402;42.004;23.088;2023-06-26T11:04:09;11.85;;;4.05;;
39728;SDS011;25402;42.004;23.088;2023-06-26T11:06:38;9.57;;;3.90;;
39728;SDS011;25402;42.004;23.088;2023-06-26T11:09:09;9.82;;;3.80;;
39728;SDS011;25402;42.004;23.088;2023-06-26T11:11:56;9.88;;;4.15;;
39728;SDS011;25402;42.004;23.088;2023-06-26T11:14:29;12.45;;;4.80;;
39728;SDS011;25402;42.004;23.088;2023-06-26T11:16:57;8.05;;;4.63;;
39728;SDS011;25402;42.004;23.088;2023-06-26T11:19:25;7.85;;;4.47;;
39728;SDS011;25402;42.004;23.088;2023-06-26T11:22:04;10.38;;;5.20;;
39728;SDS011;25402;42.004;23.088;2023-06-26T11:24:32;6.45;;;4.70;;
39728;SDS011;25402;42.004;23.088;2023-06-26T11:27:00;10.02;;;5.05;;
39728;SDS011;25402;42.004;23.088;2023-06-26T11:29:30;11.35;;;5.47;;
39728;SDS011;25402;42.004;23.088;2023-06-26T11:31:59;9.40;;;5.63;;
39728;SDS011;25402;42.004;23.088;2023-06-26T11:34:31;11.02;;;5.55;;
39728;SDS011;25402;42.004;23.088;2023-06-26T11:36:59;9.18;;;5.78;;
39728;SDS011;25402;42.004;23.088;2023-06-26T11:39:29;9.73;;;5.18;;
39728;SDS011;25402;42.004;23.088;2023-06-26T11:41:56;12.00;;;5.32;;
39728;SDS011;25402;42.004;23.088;2023-06-26T11:44:25;8.50;;;5.13;;
39728;SDS011;25402;42.004;23.088;2023-06-26T11:46:56;12.23;;;5.32;;
39728;SDS011;25402;42.004;23.088;2023-06-26T11:49:23;9.38;;;5.15;;
39728;SDS011;25402;42.004;23.088;2023-06-26T11:51:51;11.90;;;5.18;;
39728;SDS011;25402;42.004;23.088;2023-06-26T11:54:24;7.72;;;5.43;;
39728;SDS011;25402;42.004;23.088;2023-06-26T11:56:54;9.90;;;5.25;;
39728;SDS011;25402;42.004;23.088;2023-06-26T11:59:23;9.48;;;5.63;;
39728;SDS011;25402;42.004;23.088;2023-06-26T12:01:50;9.35;;;6.63;;
39728;SDS011;25402;42.004;23.088;2023-06-26T12:04:19;14.40;;;5.90;;
39728;SDS011;25402;42.004;23.088;2023-06-26T12:06:50;10.63;;;6.35;;
39728;SDS011;25402;42.004;23.088;2023-06-26T12:09:22;8.20;;;6.20;;
39728;SDS011;25402;42.004;23.088;2023-06-26T12:11:55;10.25;;;5.97;;
39728;SDS011;25402;42.004;23.088;2023-06-26T12:16:53;14.00;;;5.60;;
39728;SDS011;25402;42.004;23.088;2023-06-26T12:19:24;11.18;;;4.68;;
39728;SDS011;25402;42.004;23.088;2023-06-26T12:21:51;12.15;;;5.47;;
39728;SDS011;25402;42.004;23.088;2023-06-26T12:24:18;6.78;;;5.28;;
39728;SDS011;25402;42.004;23.088;2023-06-26T12:26:47;13.93;;;5.45;;
39728;SDS011;25402;42.004;23.088;2023-06-26T12:29:20;12.68;;;5.55;;
39728;SDS011;25402;42.004;23.088;2023-06-26T12:31:51;8.15;;;5.30;;
39728;SDS011;25402;42.004;23.088;2023-06-26T12:34:19;11.88;;;5.10;;
39728;SDS011;25402;42.004;23.088;2023-06-26T12:36:47;7.95;;;4.97;;
39728;SDS011;25402;42.004;23.088;2023-06-26T12:39:16;7.20;;;5.20;;
39728;SDS011;25402;42.004;23.088;2023-06-26T12:41:45;10.13;;;5.43;;
39728;SDS011;25402;42.004;23.088;2023-06-26T12:44:20;6.35;;;4.88;;
39728;SDS011;25402;42.004;23.088;2023-06-26T12:46:48;8.07;;;5.20;;
39728;SDS011;25402;42.004;23.088;2023-06-26T12:49:19;16.42;;;5.35;;
39728;SDS011;25402;42.004;23.088;2023-06-26T12:51:46;9.98;;;4.85;;
39728;SDS011;25402;42.004;23.088;2023-06-26T12:54:13;16.02;;;6.00;;
39728;SDS011;25402;42.004;23.088;2023-06-26T12:56:40;14.43;;;5.28;;
39728;SDS011;25402;42.004;23.088;2023-06-26T12:59:07;19.02;;;5.35;;
39728;SDS011;25402;42.004;23.088;2023-06-26T13:01:36;9.52;;;5.40;;
39728;SDS011;25402;42.004;23.088;2023-06-26T13:04:03;14.25;;;5.00;;
39728;SDS011;25402;42.004;23.088;2023-06-26T13:06:33;11.90;;;4.68;;
39728;SDS011;25402;42.004;23.088;2023-06-26T13:09:00;7.78;;;4.97;;
39728;SDS011;25402;42.004;23.088;2023-06-26T13:11:29;7.38;;;5.10;;
39728;SDS011;25402;42.004;23.088;2023-06-26T13:13:56;12.00;;;5.10;;
39728;SDS011;25402;42.004;23.088;2023-06-26T13:16:23;7.05;;;4.88;;
39728;SDS011;25402;42.004;23.088;2023-06-26T13:18:52;8.00;;;5.07;;
39728;SDS011;25402;42.004;23.088;2023-06-26T13:21:20;8.73;;;5.35;;
39728;SDS011;25402;42.004;23.088;2023-06-26T13:23:47;10.13;;;5.45;;
39728;SDS011;25402;42.004;23.088;2023-06-26T13:26:14;7.63;;;5.10;;
39728;SDS011;25402;42.004;23.088;2023-06-26T13:28:42;14.02;;;5.50;;
39728;SDS011;25402;42.004;23.088;2023-06-26T13:31:10;7.50;;;5.10;;
39728;SDS011;25402;42.004;23.088;2023-06-26T13:33:38;6.55;;;5.15;;
39728;SDS011;25402;42.004;23.088;2023-06-26T13:36:06;13.40;;;5.00;;
39728;SDS011;25402;42.004;23.088;2023-06-26T13:38:33;8.93;;;5.00;;
39728;SDS011;25402;42.004;23.088;2023-06-26T13:41:01;7.80;;;4.75;;
39728;SDS011;25402;42.004;23.088;2023-06-26T13:43:29;13.82;;;5.30;;
39728;SDS011;25402;42.004;23.088;2023-06-26T13:45:56;11.00;;;4.88;;
39728;SDS011;25402;42.004;23.088;2023-06-26T13:48:23;8.57;;;4.93;;
39728;SDS011;25402;42.004;23.088;2023-06-26T13:50:51;9.15;;;4.90;;
39728;SDS011;25402;42.004;23.088;2023-06-26T13:53:21;7.38;;;4.75;;
39728;SDS011;25402;42.004;23.088;2023-06-26T13:55:48;8.77;;;4.80;;
39728;SDS011;25402;42.004;23.088;2023-06-26T13:58:15;11.68;;;5.40;;
39728;SDS011;25402;42.004;23.088;2023-06-26T14:00:42;12.73;;;4.90;;
39728;SDS011;25402;42.004;23.088;2023-06-26T14:03:10;11.77;;;5.80;;
39728;SDS011;25402;42.004;23.088;2023-06-26T14:05:37;8.02;;;5.60;;
39728;SDS011;25402;42.004;23.088;2023-06-26T14:08:05;20.55;;;5.18;;
39728;SDS011;25402;42.004;23.088;2023-06-26T14:10:35;15.55;;;5.75;;
39728;SDS011;25402;42.004;23.088;2023-06-26T14:13:02;7.88;;;5.03;;
39728;SDS011;25402;42.004;23.088;2023-06-26T14:15:30;10.52;;;5.50;;
39728;SDS011;25402;42.004;23.088;2023-06-26T14:17:57;15.32;;;5.35;;
39728;SDS011;25402;42.004;23.088;2023-06-26T14:20:27;9.27;;;5.65;;
39728;SDS011;25402;42.004;23.088;2023-06-26T14:22:55;14.70;;;5.32;;
39728;SDS011;25402;42.004;23.088;2023-06-26T14:25:22;18.00;;;5.38;;
39728;SDS011;25402;42.004;23.088;2023-06-26T14:27:51;8.02;;;5.15;;
39728;SDS011;25402;42.004;23.088;2023-06-26T14:30:18;9.77;;;5.18;;
39728;SDS011;25402;42.004;23.088;2023-06-26T14:32:45;9.23;;;5.82;;